createdAt,value
2023-05-15T00:00:40.873Z,14.94
2023-05-15T00:01:42.143Z,14.92
2023-05-15T00:02:39.453Z,14.93
2023-05-15T00:03:40.002Z,14.93
2023-05-15T00:04:39.553Z,14.93
2023-05-15T00:05:40.151Z,14.93
2023-05-15T00:06:39.582Z,14.93
2023-05-15T00:07:39.662Z,14.92
2023-05-15T00:08:39.969Z,14.91
2023-05-15T00:09:40.405Z,14.90
2023-05-15T00:10:42.793Z,14.90
2023-05-15T00:11:39.597Z,14.89
2023-05-15T00:12:39.539Z,14.88
2023-05-15T00:13:39.558Z,14.88
2023-05-15T00:14:39.698Z,14.86
2023-05-15T00:15:40.418Z,14.84
2023-05-15T00:16:40.272Z,14.81
2023-05-15T00:17:39.733Z,14.78
2023-05-15T00:18:39.768Z,14.77
2023-05-15T00:19:39.803Z,14.72
2023-05-15T00:20:39.967Z,14.71
2023-05-15T00:21:39.879Z,14.68
2023-05-15T00:22:39.652Z,14.68
2023-05-15T00:23:39.693Z,14.66
2023-05-15T00:24:39.962Z,14.62
2023-05-15T00:25:39.505Z,14.59
2023-05-15T00:26:39.430Z,14.57
2023-05-15T00:27:39.260Z,14.55
2023-05-15T00:28:39.098Z,14.53
2023-05-15T00:29:39.622Z,14.52
2023-05-15T00:30:39.947Z,14.51
2023-05-15T00:31:40.105Z,14.51
2023-05-15T00:32:39.619Z,14.51
2023-05-15T00:33:39.530Z,14.49
2023-05-15T00:34:39.680Z,14.47
2023-05-15T00:35:40.486Z,14.47
2023-05-15T00:36:39.651Z,14.44
2023-05-15T00:37:39.515Z,14.42
2023-05-15T00:38:39.502Z,14.40
2023-05-15T00:39:39.743Z,14.38
2023-05-15T00:40:39.640Z,14.36
2023-05-15T00:41:39.697Z,14.35
2023-05-15T00:42:39.414Z,14.33
2023-05-15T00:43:39.569Z,14.31
2023-05-15T00:44:39.748Z,14.30
2023-05-15T00:45:40.710Z,14.28
2023-05-15T00:46:39.884Z,14.26
2023-05-15T00:47:40.118Z,14.24
2023-05-15T00:48:39.610Z,14.24
2023-05-15T00:49:39.829Z,14.21
2023-05-15T00:50:39.951Z,14.19
2023-05-15T00:51:39.786Z,14.18
2023-05-15T00:52:39.806Z,14.16
2023-05-15T00:53:40.153Z,14.15
2023-05-15T00:54:39.743Z,14.16
2023-05-15T00:55:40.500Z,14.18
2023-05-15T00:56:39.313Z,14.16
2023-05-15T00:57:39.759Z,14.16
2023-05-15T00:58:39.850Z,14.16
2023-05-15T00:59:40.284Z,14.13
2023-05-15T01:00:40.975Z,14.10
2023-05-15T01:01:39.948Z,14.08
2023-05-15T01:02:40.399Z,14.08
2023-05-15T01:03:39.990Z,14.07
2023-05-15T01:04:39.431Z,14.07
2023-05-15T01:05:39.845Z,14.09
2023-05-15T01:06:40.345Z,14.11
2023-05-15T01:07:39.342Z,14.14
2023-05-15T01:08:39.506Z,14.17
2023-05-15T01:09:39.934Z,14.18
2023-05-15T01:10:40.598Z,14.18
2023-05-15T01:11:39.652Z,14.20
2023-05-15T01:12:39.500Z,14.22
2023-05-15T01:13:39.301Z,14.22
2023-05-15T01:14:39.521Z,14.24
2023-05-15T01:15:44.915Z,14.25
2023-05-15T01:16:40.243Z,14.26
2023-05-15T01:17:39.788Z,14.27
2023-05-15T01:18:40.304Z,14.28
2023-05-15T01:19:40.174Z,14.29
2023-05-15T01:20:39.883Z,14.30
2023-05-15T01:21:40.172Z,14.31
2023-05-15T01:22:39.580Z,14.32
2023-05-15T01:23:44.793Z,14.33
2023-05-15T01:24:39.872Z,14.34
2023-05-15T01:25:40.663Z,14.35
2023-05-15T01:26:39.855Z,14.36
2023-05-15T01:27:39.788Z,14.36
2023-05-15T01:28:39.722Z,14.38
2023-05-15T01:29:39.964Z,14.39
2023-05-15T01:30:40.434Z,14.39
2023-05-15T01:31:40.091Z,14.39
2023-05-15T01:32:39.646Z,14.40
2023-05-15T01:33:39.929Z,14.40
2023-05-15T01:34:40.219Z,14.40
2023-05-15T01:35:40.103Z,14.40
2023-05-15T01:36:39.189Z,14.41
2023-05-15T01:37:39.208Z,14.41
2023-05-15T01:38:39.317Z,14.41
2023-05-15T01:39:39.562Z,14.41
2023-05-15T01:40:39.464Z,14.41
2023-05-15T01:41:39.605Z,14.42
2023-05-15T01:42:39.569Z,14.42
2023-05-15T01:43:39.362Z,14.43
2023-05-15T01:44:40.036Z,14.43
2023-05-15T01:45:40.198Z,14.43
2023-05-15T01:46:39.664Z,14.44
2023-05-15T01:47:39.898Z,14.43
2023-05-15T01:48:39.932Z,14.43
2023-05-15T01:49:40.222Z,14.43
2023-05-15T01:50:39.829Z,14.43
2023-05-15T01:51:40.293Z,14.43
2023-05-15T01:52:39.503Z,14.42
2023-05-15T01:53:39.618Z,14.42
2023-05-15T01:54:39.751Z,14.43
2023-05-15T01:55:40.006Z,14.44
2023-05-15T01:56:39.771Z,14.43
2023-05-15T01:57:39.939Z,14.43
2023-05-15T01:58:40.096Z,14.43
2023-05-15T01:59:39.538Z,14.43
2023-05-15T02:00:40.407Z,14.42
2023-05-15T02:01:39.778Z,14.43
2023-05-15T02:02:39.739Z,14.43
2023-05-15T02:03:39.865Z,14.42
2023-05-15T02:04:39.701Z,14.40
2023-05-15T02:05:40.494Z,14.40
2023-05-15T02:06:39.313Z,14.40
2023-05-15T02:07:39.643Z,14.39
2023-05-15T02:08:39.862Z,14.38
2023-05-15T02:09:40.108Z,14.38
2023-05-15T02:10:39.886Z,14.38
2023-05-15T02:11:39.744Z,14.36
2023-05-15T02:12:39.631Z,14.35
2023-05-15T02:13:39.449Z,14.35
2023-05-15T02:14:39.677Z,14.35
2023-05-15T02:15:40.349Z,14.35
2023-05-15T02:16:39.882Z,14.35
2023-05-15T02:17:40.108Z,14.33
2023-05-15T02:18:39.452Z,14.32
2023-05-15T02:19:39.610Z,14.31
2023-05-15T02:20:39.910Z,14.30
2023-05-15T02:21:39.854Z,14.30
2023-05-15T02:22:39.833Z,14.30
2023-05-15T02:23:39.995Z,14.31
2023-05-15T02:24:39.323Z,14.32
2023-05-15T02:25:40.272Z,14.33
2023-05-15T02:26:39.718Z,14.32
2023-05-15T02:27:39.916Z,14.32
2023-05-15T02:28:39.926Z,14.32
2023-05-15T02:29:40.091Z,14.32
2023-05-15T02:30:39.337Z,14.31
2023-05-15T02:31:40.202Z,14.31
2023-05-15T02:32:39.534Z,14.32
2023-05-15T02:33:39.586Z,14.32
2023-05-15T02:34:39.727Z,14.32
2023-05-15T02:35:40.119Z,14.33
2023-05-15T02:36:39.480Z,14.32
2023-05-15T02:37:39.551Z,14.33
2023-05-15T02:38:39.488Z,14.35
2023-05-15T02:39:40.130Z,14.35
2023-05-15T02:40:39.622Z,14.34
2023-05-15T02:41:39.399Z,14.33
2023-05-15T02:42:39.460Z,14.33
2023-05-15T02:43:39.638Z,14.34
2023-05-15T02:44:39.852Z,14.35
2023-05-15T02:45:40.529Z,14.35
2023-05-15T02:46:39.764Z,14.35
2023-05-15T02:47:39.997Z,14.34
2023-05-15T02:48:39.819Z,14.34
2023-05-15T02:49:40.125Z,14.33
2023-05-15T02:50:39.919Z,14.34
2023-05-15T02:51:40.058Z,14.35
2023-05-15T02:52:39.383Z,14.35
2023-05-15T02:53:39.573Z,14.35
2023-05-15T02:54:39.712Z,14.34
2023-05-15T02:55:40.150Z,14.34
2023-05-15T02:56:39.879Z,14.33
2023-05-15T02:57:39.824Z,14.33
2023-05-15T02:58:39.744Z,14.34
2023-05-15T02:59:39.904Z,14.34
2023-05-15T03:00:41.123Z,14.35
2023-05-15T03:01:39.644Z,14.34
2023-05-15T03:02:39.996Z,14.34
2023-05-15T03:03:39.556Z,14.34
2023-05-15T03:04:40.019Z,14.35
2023-05-15T03:05:39.805Z,14.35
2023-05-15T03:06:39.970Z,14.34
2023-05-15T03:07:40.042Z,14.33
2023-05-15T03:08:39.319Z,14.32
2023-05-15T03:09:39.583Z,14.34
2023-05-15T03:10:39.823Z,14.33
2023-05-15T03:11:39.534Z,14.33
2023-05-15T03:12:39.265Z,14.33
2023-05-15T03:13:39.311Z,14.33
2023-05-15T03:14:39.343Z,14.34
2023-05-15T03:15:40.036Z,14.35
2023-05-15T03:16:39.606Z,14.35
2023-05-15T03:17:39.800Z,14.35
2023-05-15T03:18:39.930Z,14.34
2023-05-15T03:19:40.366Z,14.34
2023-05-15T03:20:39.946Z,14.33
2023-05-15T03:21:40.121Z,14.32
2023-05-15T03:22:39.336Z,14.33
2023-05-15T03:23:39.473Z,14.32
2023-05-15T03:24:39.823Z,14.32
2023-05-15T03:25:40.752Z,14.32
2023-05-15T03:26:39.719Z,14.31
2023-05-15T03:27:40.013Z,14.32
2023-05-15T03:28:40.565Z,14.32
2023-05-15T03:29:39.139Z,14.32
2023-05-15T03:30:39.761Z,14.30
2023-05-15T03:31:40.080Z,14.31
2023-05-15T03:32:39.329Z,14.31
2023-05-15T03:33:39.611Z,14.30
2023-05-15T03:34:41.024Z,14.29
2023-05-15T03:35:39.896Z,14.29
2023-05-15T03:36:39.869Z,14.29
2023-05-15T03:37:39.599Z,14.28
2023-05-15T03:38:39.876Z,14.28
2023-05-15T03:39:39.930Z,14.28
2023-05-15T03:40:40.411Z,14.30
2023-05-15T03:41:39.652Z,14.29
2023-05-15T03:42:39.950Z,14.25
2023-05-15T03:43:40.150Z,14.25
2023-05-15T03:44:44.821Z,14.25
2023-05-15T03:45:40.604Z,14.23
2023-05-15T03:46:45.508Z,14.22
2023-05-15T03:47:40.325Z,14.22
2023-05-15T03:48:45.000Z,14.22
2023-05-15T03:49:39.503Z,14.21
2023-05-15T03:50:39.983Z,14.20
2023-05-15T03:51:39.658Z,14.19
2023-05-15T03:52:42.123Z,14.21
2023-05-15T03:53:39.780Z,14.22
2023-05-15T03:54:39.938Z,14.21
2023-05-15T03:55:40.994Z,14.20
2023-05-15T03:56:39.526Z,14.20
2023-05-15T03:57:39.919Z,14.20
2023-05-15T03:58:40.394Z,14.18
2023-05-15T03:59:39.932Z,14.18
2023-05-15T04:00:41.734Z,14.18
2023-05-15T04:01:54.785Z,14.18
2023-05-15T04:02:54.202Z,14.17
2023-05-15T04:03:39.929Z,14.17
2023-05-15T04:04:40.357Z,14.17
2023-05-15T04:05:40.442Z,14.16
2023-05-15T04:06:39.937Z,14.15
2023-05-15T04:07:39.871Z,14.15
2023-05-15T04:08:40.973Z,14.16
2023-05-15T04:09:40.045Z,14.15
2023-05-15T04:10:40.292Z,14.15
2023-05-15T04:11:39.935Z,14.13
2023-05-15T04:12:39.766Z,14.12
2023-05-15T04:13:39.972Z,14.13
2023-05-15T04:14:39.501Z,14.11
2023-05-15T04:15:40.685Z,14.10
2023-05-15T04:16:40.265Z,14.08
2023-05-15T04:17:39.788Z,14.09
2023-05-15T04:18:40.096Z,14.09
2023-05-15T04:19:41.003Z,14.07
2023-05-15T04:20:39.990Z,14.07
2023-05-15T04:21:39.645Z,14.07
2023-05-15T04:22:39.998Z,14.07
2023-05-15T04:23:39.202Z,14.05
2023-05-15T04:24:39.481Z,14.04
2023-05-15T04:25:40.914Z,14.05
2023-05-15T04:26:40.433Z,14.04
2023-05-15T04:27:39.991Z,14.03
2023-05-15T04:28:41.478Z,14.03
2023-05-15T04:29:40.083Z,14.02
2023-05-15T04:31:01.952Z,14.01
2023-05-15T04:31:39.999Z,14.02
2023-05-15T04:32:39.764Z,14.02
2023-05-15T04:33:39.934Z,14.02
2023-05-15T04:34:40.215Z,14.02
2023-05-15T04:35:40.192Z,14.02
2023-05-15T04:36:40.808Z,14.02
2023-05-15T04:37:40.104Z,14.02
2023-05-15T04:38:39.813Z,14.00
2023-05-15T04:39:40.335Z,14.02
2023-05-15T04:40:39.889Z,14.02
2023-05-15T04:41:40.261Z,14.02
2023-05-15T04:42:39.957Z,14.03
2023-05-15T04:43:41.230Z,14.04
2023-05-15T04:44:40.164Z,14.04
2023-05-15T04:45:40.761Z,14.03
2023-05-15T04:46:40.505Z,14.03
2023-05-15T04:47:39.998Z,14.03
2023-05-15T04:48:39.433Z,14.05
2023-05-15T04:49:39.896Z,14.05
2023-05-15T04:50:41.047Z,14.04
2023-05-15T04:51:39.573Z,14.04
2023-05-15T04:52:40.008Z,14.02
2023-05-15T04:53:39.359Z,14.03
2023-05-15T04:54:39.968Z,14.02
2023-05-15T04:55:41.250Z,14.02
2023-05-15T04:56:39.958Z,14.00
2023-05-15T04:57:40.855Z,13.98
2023-05-15T04:58:41.074Z,14.00
2023-05-15T04:59:40.726Z,13.98
2023-05-15T05:01:13.566Z,13.98
2023-05-15T05:01:46.420Z,13.99
2023-05-15T05:02:40.109Z,13.97
2023-05-15T05:03:40.303Z,13.97
2023-05-15T05:04:40.552Z,13.96
2023-05-15T05:05:40.416Z,13.95
2023-05-15T05:06:39.835Z,13.96
2023-05-15T05:07:40.366Z,13.95
2023-05-15T05:08:39.774Z,13.93
2023-05-15T05:09:40.319Z,13.93
2023-05-15T05:10:39.581Z,13.92
2023-05-15T05:11:39.993Z,13.91
2023-05-15T05:12:42.976Z,13.91
2023-05-15T05:13:39.470Z,13.92
2023-05-15T05:14:39.742Z,13.92
2023-05-15T05:15:40.967Z,13.93
2023-05-15T05:16:40.302Z,13.94
2023-05-15T05:17:40.219Z,13.96
2023-05-15T05:18:39.838Z,13.98
2023-05-15T05:19:40.294Z,13.99
2023-05-15T05:20:40.155Z,13.98
2023-05-15T05:21:39.819Z,13.99
2023-05-15T05:22:40.437Z,14.01
2023-05-15T05:23:40.161Z,14.03
2023-05-15T05:24:40.070Z,14.03
2023-05-15T05:25:40.641Z,14.04
2023-05-15T05:26:40.257Z,14.04
2023-05-15T05:27:39.865Z,14.03
2023-05-15T05:28:40.451Z,14.01
2023-05-15T05:29:40.166Z,14.01
2023-05-15T05:30:40.696Z,13.99
2023-05-15T05:31:40.513Z,13.97
2023-05-15T05:32:40.123Z,13.95
2023-05-15T05:33:39.853Z,13.99
2023-05-15T05:34:40.507Z,14.00
2023-05-15T05:35:40.649Z,14.02
2023-05-15T05:36:40.164Z,14.01
2023-05-15T05:37:41.228Z,14.02
2023-05-15T05:38:39.994Z,14.03
2023-05-15T05:39:39.737Z,14.01
2023-05-15T05:40:40.407Z,14.00
2023-05-15T05:41:39.744Z,13.99
2023-05-15T05:42:40.127Z,14.00
2023-05-15T05:43:39.762Z,13.98
2023-05-15T05:44:40.416Z,14.00
2023-05-15T05:45:40.998Z,14.02
2023-05-15T05:46:40.070Z,14.04
2023-05-15T05:47:39.917Z,14.03
2023-05-15T05:48:40.387Z,14.02
2023-05-15T05:49:40.144Z,14.01
2023-05-15T05:50:40.054Z,14.00
2023-05-15T05:51:40.012Z,14.00
2023-05-15T05:52:39.779Z,14.03
2023-05-15T05:53:40.471Z,14.02
2023-05-15T05:54:40.118Z,14.01
2023-05-15T05:55:40.414Z,14.00
2023-05-15T05:56:40.019Z,14
2023-05-15T05:57:39.829Z,14.01
2023-05-15T05:58:42.099Z,14.03
2023-05-15T05:59:39.946Z,14.04
2023-05-15T06:00:41.228Z,14.03
2023-05-15T06:01:40.288Z,14.02
2023-05-15T06:02:40.758Z,14.02
2023-05-15T06:03:40.819Z,14.02
2023-05-15T06:04:40.362Z,14.01
2023-05-15T06:05:40.683Z,14.01
2023-05-15T06:06:40.106Z,14
2023-05-15T06:07:39.384Z,14.01
2023-05-15T06:08:40.119Z,13.97
2023-05-15T06:09:39.627Z,13.96
2023-05-15T06:10:41.035Z,13.96
2023-05-15T06:11:41.513Z,13.97
2023-05-15T06:12:39.765Z,13.98
2023-05-15T06:13:40.119Z,14.00
2023-05-15T06:14:39.996Z,14.00
2023-05-15T06:15:40.365Z,14.00
2023-05-15T06:16:39.869Z,14.01
2023-05-15T06:17:40.484Z,13.99
2023-05-15T06:18:40.083Z,13.99
2023-05-15T06:19:47.477Z,14.00
2023-05-15T06:20:40.710Z,13.98
2023-05-15T06:21:40.046Z,13.97
2023-05-15T06:22:39.729Z,13.97
2023-05-15T06:23:40.325Z,13.97
2023-05-15T06:24:40.342Z,13.96
2023-05-15T06:25:40.421Z,13.98
2023-05-15T06:26:40.486Z,13.97
2023-05-15T06:27:40.128Z,13.96
2023-05-15T06:28:39.851Z,13.96
2023-05-15T06:29:40.427Z,13.98
2023-05-15T06:30:40.807Z,13.99
2023-05-15T06:31:54.685Z,13.98
2023-05-15T06:32:40.416Z,13.97
2023-05-15T06:33:53.969Z,14.01
2023-05-15T06:34:39.940Z,14.01
2023-05-15T06:35:40.233Z,13.95
2023-05-15T06:36:40.118Z,13.95
2023-05-15T06:37:39.616Z,13.94
2023-05-15T06:38:40.424Z,13.93
2023-05-15T06:39:39.998Z,13.93
2023-05-15T06:40:40.174Z,13.92
2023-05-15T06:41:39.809Z,13.92
2023-05-15T06:42:40.231Z,13.91
2023-05-15T06:43:44.849Z,13.91
2023-05-15T06:44:41.312Z,13.91
2023-05-15T06:45:59.198Z,13.90
2023-05-15T06:46:39.977Z,13.92
2023-05-15T06:47:40.114Z,13.90
2023-05-15T06:48:40.264Z,13.89
2023-05-15T06:49:40.158Z,13.89
2023-05-15T06:50:40.028Z,13.89
2023-05-15T06:51:40.040Z,13.90
2023-05-15T06:52:40.071Z,13.89
2023-05-15T06:53:39.960Z,13.89
2023-05-15T06:54:40.639Z,13.89
2023-05-15T06:55:40.997Z,13.88
2023-05-15T06:56:39.817Z,13.87
2023-05-15T06:57:40.759Z,13.86
2023-05-15T06:58:40.389Z,13.90
2023-05-15T06:59:40.170Z,13.89
2023-05-15T07:00:41.127Z,13.89
2023-05-15T07:01:40.030Z,13.89
2023-05-15T07:02:39.950Z,13.88
2023-05-15T07:03:40.006Z,13.86
2023-05-15T07:04:39.876Z,13.86
2023-05-15T07:05:55.042Z,13.88
2023-05-15T07:06:39.714Z,13.89
2023-05-15T07:07:40.493Z,13.91
2023-05-15T07:08:40.050Z,13.93
2023-05-15T07:09:39.857Z,13.96
2023-05-15T07:10:40.759Z,13.98
2023-05-15T07:11:40.553Z,14.02
2023-05-15T07:12:40.364Z,14.06
2023-05-15T07:13:39.886Z,14.06
2023-05-15T07:14:40.841Z,14.03
2023-05-15T07:15:40.394Z,14.04
2023-05-15T07:16:39.852Z,14.01
2023-05-15T07:17:59.713Z,14.00
2023-05-15T07:18:40.708Z,13.98
2023-05-15T07:19:40.358Z,13.98
2023-05-15T07:20:44.828Z,14.02
2023-05-15T07:21:40.645Z,14.02
2023-05-15T07:22:52.052Z,14.01
2023-05-15T07:23:40.106Z,14
2023-05-15T07:24:40.578Z,14
2023-05-15T07:25:41.636Z,14.01
2023-05-15T07:26:58.500Z,14.03
2023-05-15T07:27:39.956Z,14.01
2023-05-15T07:28:40.662Z,13.97
2023-05-15T07:29:40.247Z,13.97
2023-05-15T07:30:40.834Z,14.00
2023-05-15T07:32:02.903Z,14.00
2023-05-15T07:32:40.578Z,14.01
2023-05-15T07:33:39.957Z,14.02
2023-05-15T07:34:40.930Z,14.05
2023-05-15T07:36:03.122Z,14.04
2023-05-15T07:36:40.239Z,14.02
2023-05-15T07:37:39.758Z,14.02
2023-05-15T07:38:41.321Z,14.02
2023-05-15T07:39:40.075Z,14.05
2023-05-15T07:40:40.028Z,14.09
2023-05-15T07:41:39.431Z,14.11
2023-05-15T07:42:39.936Z,14.17
2023-05-15T07:43:40.292Z,14.21
2023-05-15T07:44:41.362Z,14.26
2023-05-15T07:45:41.200Z,14.29
2023-05-15T07:46:40.759Z,14.31
2023-05-15T07:47:40.552Z,14.45
2023-05-15T07:48:39.996Z,14.53
2023-05-15T07:49:40.122Z,14.49
2023-05-15T07:50:40.105Z,14.44
2023-05-15T07:51:40.167Z,14.44
2023-05-15T07:52:39.880Z,14.53
2023-05-15T07:53:40.206Z,14.52
2023-05-15T07:54:39.973Z,14.58
2023-05-15T07:55:40.837Z,14.61
2023-05-15T07:56:40.761Z,14.60
2023-05-15T07:57:40.947Z,14.58
2023-05-15T07:58:40.350Z,14.61
2023-05-15T07:59:40.309Z,14.69
2023-05-15T08:00:40.765Z,14.69
2023-05-15T08:01:40.599Z,14.67
2023-05-15T08:02:40.273Z,14.74
2023-05-15T08:03:40.089Z,14.80
2023-05-15T08:04:40.289Z,14.83
2023-05-15T08:05:41.007Z,14.80
2023-05-15T08:06:40.008Z,14.81
2023-05-15T08:07:40.102Z,14.81
2023-05-15T08:08:39.710Z,14.84
2023-05-15T08:09:40.802Z,14.87
2023-05-15T08:10:40.395Z,14.89
2023-05-15T08:11:40.217Z,14.88
2023-05-15T08:12:39.945Z,14.83
2023-05-15T08:13:40.453Z,14.81
2023-05-15T08:14:40.528Z,14.79
2023-05-15T08:15:41.157Z,14.79
2023-05-15T08:16:40.212Z,14.77
2023-05-15T08:17:39.977Z,14.72
2023-05-15T08:18:39.650Z,14.69
2023-05-15T08:20:26.167Z,14.66
2023-05-15T08:20:44.976Z,14.63
2023-05-15T08:21:39.669Z,14.60
2023-05-15T08:22:40.075Z,14.59
2023-05-15T08:23:39.658Z,14.64
2023-05-15T08:24:40.212Z,14.70
2023-05-15T08:25:40.353Z,14.69
2023-05-15T08:26:40.090Z,14.71
2023-05-15T08:27:39.544Z,14.69
2023-05-15T08:28:40.069Z,14.73
2023-05-15T08:29:40.034Z,14.78
2023-05-15T08:30:45.150Z,14.85
2023-05-15T08:31:40.040Z,14.87
2023-05-15T08:32:39.850Z,14.87
2023-05-15T08:33:40.579Z,14.90
2023-05-15T08:34:40.258Z,14.86
2023-05-15T08:35:40.884Z,14.87
2023-05-15T08:36:45.931Z,14.92
2023-05-15T08:37:40.904Z,14.97
2023-05-15T08:38:41.114Z,14.93
2023-05-15T08:39:40.241Z,14.93
2023-05-15T08:40:55.118Z,14.92
2023-05-15T08:41:55.378Z,14.92
2023-05-15T08:42:39.682Z,14.99
2023-05-15T08:43:40.508Z,15.04
2023-05-15T08:44:40.386Z,15.02
2023-05-15T08:45:40.825Z,14.96
2023-05-15T08:46:40.692Z,14.93
2023-05-15T08:47:40.354Z,14.96
2023-05-15T08:48:40.494Z,14.98
2023-05-15T08:49:41.897Z,15.05
2023-05-15T08:50:40.159Z,15.06
2023-05-15T08:51:40.180Z,15.09
2023-05-15T08:52:40.030Z,15.11
2023-05-15T08:53:39.970Z,15.14
2023-05-15T08:54:40.000Z,15.15
2023-05-15T08:55:41.087Z,15.17
2023-05-15T08:56:40.309Z,15.18
2023-05-15T08:57:40.066Z,15.13
2023-05-15T08:58:40.079Z,15.16
2023-05-15T08:59:40.204Z,15.22
2023-05-15T09:00:40.695Z,15.24
2023-05-15T09:01:40.609Z,15.27
2023-05-15T09:02:40.332Z,15.28
2023-05-15T09:03:40.448Z,15.26
2023-05-15T09:04:40.056Z,15.28
2023-05-15T09:05:40.285Z,15.26
2023-05-15T09:06:39.947Z,15.25
2023-05-15T09:07:40.398Z,15.22
2023-05-15T09:08:39.843Z,15.25
2023-05-15T09:09:40.715Z,15.33
2023-05-15T09:10:40.371Z,15.38
2023-05-15T09:11:40.055Z,15.39
2023-05-15T09:12:39.805Z,15.41
2023-05-15T09:13:40.043Z,15.40
2023-05-15T09:14:39.891Z,15.41
2023-05-15T09:15:41.424Z,15.42
2023-05-15T09:16:40.783Z,15.43
2023-05-15T09:17:40.828Z,15.41
2023-05-15T09:18:40.385Z,15.46
2023-05-15T09:19:40.137Z,15.46
2023-05-15T09:20:48.085Z,15.47
2023-05-15T09:21:39.549Z,15.51
2023-05-15T09:23:02.940Z,15.53
2023-05-15T09:23:40.210Z,15.53
2023-05-15T09:24:48.328Z,15.57
2023-05-15T09:25:40.915Z,15.60
2023-05-15T09:26:40.255Z,15.62
2023-05-15T09:27:40.008Z,15.58
2023-05-15T09:28:39.729Z,15.53
2023-05-15T09:29:40.550Z,15.49
2023-05-15T09:30:40.551Z,15.50
2023-05-15T09:31:40.192Z,15.46
2023-05-15T09:32:40.589Z,15.44
2023-05-15T09:33:40.583Z,15.40
2023-05-15T09:34:40.667Z,15.41
2023-05-15T09:35:44.224Z,15.45
2023-05-15T09:36:40.045Z,15.42
2023-05-15T09:37:39.860Z,15.44
2023-05-15T09:38:40.268Z,15.52
2023-05-15T09:39:40.054Z,15.62
2023-05-15T09:40:39.898Z,15.60
2023-05-15T09:41:40.069Z,15.63
2023-05-15T09:42:39.896Z,15.61
2023-05-15T09:43:40.310Z,15.69
2023-05-15T09:44:40.006Z,15.75
2023-05-15T09:45:40.679Z,15.80
2023-05-15T09:46:59.856Z,15.75
2023-05-15T09:47:40.813Z,15.65
2023-05-15T09:48:40.796Z,15.69
2023-05-15T09:49:40.510Z,15.81
2023-05-15T09:50:40.393Z,15.77
2023-05-15T09:51:40.188Z,15.76
2023-05-15T09:52:39.655Z,15.82
2023-05-15T09:53:40.571Z,15.83
2023-05-15T09:54:40.113Z,15.89
2023-05-15T09:55:40.941Z,15.90
2023-05-15T09:56:40.287Z,15.90
2023-05-15T09:57:40.137Z,15.93
2023-05-15T09:59:02.512Z,15.96
2023-05-15T09:59:40.283Z,15.96
2023-05-15T10:00:47.549Z,16
2023-05-15T10:01:40.448Z,16.04
2023-05-15T10:03:40.417Z,15.87
2023-05-15T10:04:40.042Z,15.87
2023-05-15T10:05:58.348Z,15.86
2023-05-15T10:06:41.969Z,15.82
2023-05-15T10:07:40.548Z,15.88
2023-05-15T10:08:40.149Z,15.97
2023-05-15T10:09:40.469Z,16.01
2023-05-15T10:10:40.822Z,16.00
2023-05-15T10:11:40.512Z,15.99
2023-05-15T10:12:40.372Z,16.02
2023-05-15T10:13:40.106Z,16.08
2023-05-15T10:14:40.109Z,16.03
2023-05-15T10:15:40.718Z,16.08
2023-05-15T10:17:12.337Z,16.10
2023-05-15T10:17:45.591Z,16.00
2023-05-15T10:18:40.582Z,15.96
2023-05-15T10:19:47.182Z,16.00
2023-05-15T10:21:40.096Z,16.04
2023-05-15T10:22:39.626Z,16.10
2023-05-15T10:23:40.044Z,16.14
2023-05-15T10:24:40.221Z,16.10
2023-05-15T10:25:40.060Z,16.16
2023-05-15T10:26:39.838Z,16.20
2023-05-15T10:27:40.327Z,16.29
2023-05-15T10:28:40.244Z,16.32
2023-05-15T10:29:40.284Z,16.27
2023-05-15T10:30:41.363Z,16.19
2023-05-15T10:31:40.542Z,16.14
2023-05-15T10:32:40.345Z,16.21
2023-05-15T10:33:39.952Z,16.26
2023-05-15T10:34:41.449Z,16.27
2023-05-15T10:35:40.345Z,16.27
2023-05-15T10:36:40.721Z,16.30
2023-05-15T10:37:40.135Z,16.22
2023-05-15T10:38:39.860Z,16.18
2023-05-15T10:39:40.514Z,16.21
2023-05-15T10:40:41.061Z,16.21
2023-05-15T10:41:39.818Z,16.28
2023-05-15T10:42:40.352Z,16.31
2023-05-15T10:43:40.096Z,16.34
2023-05-15T10:44:40.310Z,16.31
2023-05-15T10:45:40.650Z,16.31
2023-05-15T10:46:40.427Z,16.31
2023-05-15T10:47:40.488Z,16.34
2023-05-15T10:48:40.395Z,16.37
2023-05-15T10:49:40.374Z,16.33
2023-05-15T10:50:41.171Z,16.32
2023-05-15T10:51:40.187Z,16.31
2023-05-15T10:52:39.731Z,16.33
2023-05-15T10:53:40.416Z,16.27
2023-05-15T10:54:40.193Z,16.24
2023-05-15T10:55:40.625Z,16.23
2023-05-15T10:56:40.533Z,16.34
2023-05-15T10:57:45.358Z,16.40
2023-05-15T10:58:40.269Z,16.42
2023-05-15T10:59:45.467Z,16.47
2023-05-15T11:00:41.954Z,16.47
2023-05-15T11:01:45.884Z,16.46
2023-05-15T11:02:40.585Z,16.53
2023-05-15T11:03:49.368Z,16.52
2023-05-15T11:04:40.233Z,16.55
2023-05-15T11:05:40.374Z,16.63
2023-05-15T11:06:40.624Z,16.64
2023-05-15T11:07:40.940Z,16.61
2023-05-15T11:08:41.108Z,16.56
2023-05-15T11:09:43.958Z,16.57
2023-05-15T11:10:41.698Z,16.55
2023-05-15T11:11:40.843Z,16.55
2023-05-15T11:12:41.044Z,16.62
2023-05-15T11:13:40.023Z,16.72
2023-05-15T11:14:39.960Z,16.70
2023-05-15T11:15:48.678Z,16.72
2023-05-15T11:16:40.430Z,16.79
2023-05-15T11:17:40.038Z,16.88
2023-05-15T11:18:39.778Z,16.90
2023-05-15T11:19:40.315Z,16.88
2023-05-15T11:20:40.058Z,16.94
2023-05-15T11:21:39.852Z,16.92
2023-05-15T11:22:40.207Z,16.96
2023-05-15T11:23:39.849Z,17.01
2023-05-15T11:24:40.277Z,17.00
2023-05-15T11:25:40.407Z,16.99
2023-05-15T11:26:39.921Z,17.01
2023-05-15T11:27:40.914Z,17.09
2023-05-15T11:28:40.397Z,17.13
2023-05-15T11:29:40.545Z,17.17
2023-05-15T11:30:41.032Z,17.20
2023-05-15T11:31:40.715Z,17.16
2023-05-15T11:32:40.945Z,17.20
2023-05-15T11:33:59.407Z,17.21
2023-05-15T11:34:40.365Z,17.21
2023-05-15T11:35:40.560Z,17.21
2023-05-15T11:36:40.486Z,17.17
2023-05-15T11:37:40.089Z,17.16
2023-05-15T11:38:39.896Z,17.20
2023-05-15T11:39:40.466Z,17.19
2023-05-15T11:40:40.865Z,17.21
2023-05-15T11:41:40.671Z,17.22
2023-05-15T11:42:40.229Z,17.27
2023-05-15T11:43:40.107Z,17.27
2023-05-15T11:44:40.400Z,17.30
2023-05-15T11:45:45.946Z,17.31
2023-05-15T11:46:40.889Z,17.34
2023-05-15T11:47:40.629Z,17.34
2023-05-15T11:48:40.486Z,17.35
2023-05-15T11:49:40.520Z,17.27
2023-05-15T11:50:41.239Z,17.26
2023-05-15T11:51:40.385Z,17.23
2023-05-15T11:52:40.637Z,17.22
2023-05-15T11:53:40.668Z,17.26
2023-05-15T11:54:41.009Z,17.32
2023-05-15T11:55:40.062Z,17.29
2023-05-15T11:56:39.990Z,17.30
2023-05-15T11:57:54.314Z,17.34
2023-05-15T11:58:40.228Z,17.33
2023-05-15T11:59:40.145Z,17.32
2023-05-15T12:00:41.502Z,17.34
2023-05-15T12:02:13.020Z,17.38
2023-05-15T12:02:46.572Z,17.37
2023-05-15T12:03:40.463Z,17.39
2023-05-15T12:04:40.614Z,17.38
2023-05-15T12:05:47.126Z,17.42
2023-05-15T12:06:40.286Z,17.38
2023-05-15T12:07:40.046Z,17.37
2023-05-15T12:08:40.027Z,17.40
2023-05-15T12:09:40.096Z,17.41
2023-05-15T12:10:40.812Z,17.45
2023-05-15T12:11:41.237Z,17.42
2023-05-15T12:12:40.110Z,17.43
2023-05-15T12:13:40.142Z,17.44
2023-05-15T12:14:40.036Z,17.45
2023-05-15T12:15:40.086Z,17.43
2023-05-15T12:16:40.217Z,17.45
2023-05-15T12:17:40.067Z,17.47
2023-05-15T12:18:40.143Z,17.45
2023-05-15T12:19:40.444Z,17.48
2023-05-15T12:20:41.483Z,17.46
2023-05-15T12:21:40.951Z,17.45
2023-05-15T12:22:40.826Z,17.42
2023-05-15T12:23:40.567Z,17.42
2023-05-15T12:24:40.470Z,17.48
2023-05-15T12:25:40.840Z,17.46
2023-05-15T12:26:40.386Z,17.46
2023-05-15T12:27:40.242Z,17.47
2023-05-15T12:28:40.539Z,17.57
2023-05-15T12:29:40.350Z,17.62
2023-05-15T12:30:41.002Z,17.67
2023-05-15T12:32:40.120Z,17.71
2023-05-15T12:33:39.879Z,17.71
2023-05-15T12:34:40.591Z,17.69
2023-05-15T12:35:40.118Z,17.65
2023-05-15T12:36:40.195Z,17.58
2023-05-15T12:37:40.377Z,17.60
2023-05-15T12:38:40.444Z,17.64
2023-05-15T12:40:12.262Z,17.69
2023-05-15T12:40:45.137Z,17.70
2023-05-15T12:41:39.744Z,17.71
2023-05-15T12:42:40.379Z,17.76
2023-05-15T12:43:40.051Z,17.77
2023-05-15T12:44:40.148Z,17.79
2023-05-15T12:45:40.433Z,17.79
2023-05-15T12:46:40.582Z,17.74
2023-05-15T12:47:40.451Z,17.76
2023-05-15T12:48:40.640Z,17.78
2023-05-15T12:49:41.135Z,17.87
2023-05-15T12:50:41.306Z,17.89
2023-05-15T12:51:40.324Z,17.87
2023-05-15T12:52:40.162Z,17.89
2023-05-15T12:53:40.457Z,17.87
2023-05-15T12:54:40.227Z,17.76
2023-05-15T12:55:40.405Z,17.71
2023-05-15T12:56:40.521Z,17.72